Aeroporto :
LOGIN :

Iscrizione | Disclaimer

   EN    FR    IT 

 










Sommario :    VFR   VFR Marginale   IFR   IFR Intensivo   IFR Molto Intensivo
Visibilità : 
Base nubi : 
>= 8 km
>= 3000ft
5 / 8 km
1000 / 3000 ft
1500m / 5 km
500 / 1000 ft
800 / 1500m
200 / 500 ft
< 800m
< 200 ft
Simboli :   Temporali  Nebbia  Neve Forte  Precipitazioni Forti  Vento > 20 kt
SIGMETs :   Varie  Temporali  Ghiacco  Turbolenza  Onda orograficha  Ceneri Vulcaniche






- Altitudine del aeroporto : 458 ft


LFSI - St-Dizier

ULTIMO METAR :
  • 241530Z AUTO 24005KT 190V280 CAVOK 22/12 Q1017

METARs OBSOLETI :
  • 241500Z AUTO 22005KT 190V280 CAVOK 22/12 Q1017
  • 241430Z AUTO 25006KT 220V280 CAVOK 22/12 Q1018
  • 241400Z AUTO VRB05KT CAVOK 22/11 Q1018
  • 241330Z AUTO 25006KT 210V280 CAVOK 22/12 Q1018
  • 241300Z AUTO 23005KT 180V280 CAVOK 21/12 Q1018

TAF TAF LFSI
Valido dal 24 a 15 ore il 25 a 15 ore UTC


241400Z 2415/2515 22005KT CAVOK



MetMap, La meteo Aeronautica in un colpo d'occhio ! - Copyright ORBIFLY Dicembre 2007 - Disclaimer

ORBIFLY MET'MAP TEAM :

Programmazione e sviluppo : Alexandra Zaïnal
Concezione : Baudouin d'Aumeries
Aiuto per la programmazione : Marc-Olivier Méhu
Supporto tecnico e logistico : Manuel Goepfert
Aiuto per la traduzione : Arnaldo La Scala

Contatto : metmap@orbifly.com




FONTI E CREDITI :

   NOAA